New Creation — 3EGO6 — position and weather

sailwx.info

Track history (hours):
 
Tides and Currents Weather Stations Pressure Air Temp Water Temp Dewpoint Dewpoint Depression Visibility Wind Speed Wind Dir Waves Ship Positions

New Creation

Last reported at 2014-Oct-26 00:32 UTC. Time now 2014-Oct-26 01:15 UTC.
Position N 49°20' W 123°14'.

Length 176 m; draft 8.2 m.

Type: Cargo ship. MMSI: 353507000.

Date/timePositionNaut miles runAvg speedWind from/ knotsBaromVisibWave heightAir tempDewpointWater temp
2014-Oct-26 00:32N 49°20' W 123°14'0 0.0
2014-Oct-25 23:32N 49°20' W 123°14'0 0.0
2014-Oct-25 22:32N 49°20' W 123°14'0 0.0
2014-Oct-25 21:32N 49°20' W 123°14'0 0.0
2014-Oct-25 20:32N 49°20' W 123°14'0 0.0
2014-Oct-25 19:32N 49°20' W 123°14'0 0.0
2014-Oct-25 18:32N 49°20' W 123°14'0 0.0
2014-Oct-25 17:32N 49°20' W 123°14'0 0.1
2014-Oct-25 16:32N 49°20' W 123°14'0 0.1
2014-Oct-25 15:32N 49°20' W 123°14'0 0.0
2014-Oct-25 14:32N 49°20' W 123°14'1 0.5
2014-Oct-25 13:34N 49°20' W 123°15'1010.5
2014-Oct-25 12:33N 49°16' W 123°30'1312.7
2014-Oct-25 11:32N 49°13' W 123°49'7 7.6
2014-Oct-25 10:34N 49°17' W 123°59'1313.2
2014-Oct-25 09:33N 49°24' W 124°16'1413.7
2014-Oct-25 08:33N 49°33' W 124°33'1414.3
2014-Oct-25 07:33N 49°43' W 124°47'1414.1
2014-Oct-25 06:33N 49°53' W 125°03'1110.9
2014-Oct-25 05:33N 50°02' W 125°13'1 0.1
2014-Oct-24 13:17N 50°03' W 125°15'1 1.6
2014-Oct-24 12:33N 50°02' W 125°13'5 5.4
2014-Oct-24 11:33N 49°58' W 125°08'9 9.1
2014-Oct-24 10:33N 49°51' W 124°58'1313.4
2014-Oct-24 09:33N 49°42' W 124°43'1413.7
2014-Oct-24 08:33N 49°32' W 124°29'1414.3
2014-Oct-24 07:33N 49°23' W 124°12'1313.4
2014-Oct-24 06:33N 49°15' W 123°55'6 5.7
2014-Oct-24 05:33N 49°13' W 123°47'1312.9
2014-Oct-24 04:33N 49°07' W 123°30'1212.4
2014-Oct-24 03:33N 48°60' W 123°14'1212.3
2014-Oct-24 02:33N 48°50' W 123°02'1010.4
2014-Oct-24 01:33N 48°42' W 123°12'1212.1
2014-Oct-24 00:33N 48°30' W 123°11'1111.2
2014-Oct-23 23:33N 48°22' W 123°22'10 9.6
2014-Oct-23 22:32N 48°14' W 123°30'1111.3
2014-Oct-23 21:32N 48°13' W 123°47'5 5.3
2014-Oct-23 20:31N 48°14' W 123°55'1212.5
2014-Oct-23 19:33N 48°19' W 124°12'1413.7
2014-Oct-23 18:33N 48°24' W 124°30'1212.5
2014-Oct-23 17:33N 48°29' W 124°48'1111.3
2014-Oct-23 16:33N 48°24' W 125°04'12911.8
2014-Oct-23 05:33N 46°19' W 124°16'8 7.9
2014-Oct-23 04:33N 46°12' W 124°10'7 7.0
2014-Oct-23 03:33N 46°15' W 124°00'1010.2
2014-Oct-23 02:33N 46°13' W 123°46'56 9.0
2014-Oct-22 20:20N 45°38' W 122°42'0 0.0
2014-Oct-22 19:08N 45°38' W 122°42'0 0.1
2014-Oct-22 18:26N 45°38' W 122°42'0 0.0
2014-Oct-22 17:32N 45°38' W 122°42'0 0.0
2014-Oct-21 16:32N 45°38' W 122°42'0 0.0
2014-Oct-21 09:14N 45°38' W 122°42'0 0.0
2014-Oct-21 05:08N 45°38' W 122°42'0 0.0
2014-Oct-21 03:20N 45°38' W 122°42'0 0.0
2014-Oct-21 02:08N 45°38' W 122°42'0 0.1
2014-Oct-21 01:32N 45°38' W 122°42'0 0.0
2014-Oct-20 23:26N 45°38' W 122°42'0 0.0
2014-Oct-20 03:26N 45°38' W 122°42'0 0.0
2014-Oct-20 02:32N 45°38' W 122°42'0 0.0
2014-Oct-20 01:32N 45°38' W 122°42'0 0.0
2014-Oct-20 00:32N 45°38' W 122°42'0 0.0
2014-Oct-19 23:32N 45°38' W 122°42'0 0.0
2014-Oct-19 22:32N 45°38' W 122°42'0 0.0
2014-Oct-19 21:32N 45°38' W 122°42'0 0.0
2014-Oct-19 20:32N 45°38' W 122°42'0 0.0
2014-Oct-19 19:32N 45°38' W 122°42'0 0.0
2014-Oct-19 18:32N 45°38' W 122°42'0 0.0
2014-Oct-19 17:32N 45°38' W 122°42'0 0.0
2014-Oct-19 16:32N 45°38' W 122°42'0 0.0
2014-Oct-19 15:32N 45°38' W 122°42'0 0.0
2014-Oct-19 14:32N 45°38' W 122°42'0 0.0
2014-Oct-19 13:32N 45°38' W 122°42'0 0.0
2014-Oct-19 12:32N 45°38' W 122°42'0 0.0
2014-Oct-19 11:32N 45°38' W 122°42'0 0.0
2014-Oct-19 10:26N 45°38' W 122°42'0 0.0
2014-Oct-19 09:32N 45°38' W 122°42'0 0.0
2014-Oct-19 08:32N 45°38' W 122°42'0 0.0
2014-Oct-18 12:17N 45°38' W 122°43'49 9.7
2014-Oct-18 07:15N 46°16' W 123°27'812.2
2014-Oct-18 06:33N 46°15' W 123°40'1110.7
2014-Oct-18 05:33N 46°11' W 123°54'1010.5
2014-Oct-18 04:34N 46°13' W 124°09'  
Track history (hours):
 
Tides and Currents Weather Stations Pressure Air Temp Water Temp Dewpoint Dewpoint Depression Visibility Wind Speed Wind Dir Waves Ship Positions

New Creation

Last reported at 2014-Oct-26 00:32 UTC. Time now 2014-Oct-26 01:15 UTC.
Position N 49°20' W 123°14'.

Length 176 m; draft 8.2 m.

Type: Cargo ship. MMSI: 353507000.

Date/timePositionNaut miles runAvg speedWind from/ knotsBaromVisibWave heightAir tempDewpointWater temp
2014-Oct-26 00:32N 49°20' W 123°14'0 0.0
2014-Oct-25 23:32N 49°20' W 123°14'0 0.0
2014-Oct-25 22:32N 49°20' W 123°14'0 0.0
2014-Oct-25 21:32N 49°20' W 123°14'0 0.0
2014-Oct-25 20:32N 49°20' W 123°14'0 0.0
2014-Oct-25 19:32N 49°20' W 123°14'0 0.0
2014-Oct-25 18:32N 49°20' W 123°14'0 0.0
2014-Oct-25 17:32N 49°20' W 123°14'0 0.1
2014-Oct-25 16:32N 49°20' W 123°14'0 0.1
2014-Oct-25 15:32N 49°20' W 123°14'0 0.0
2014-Oct-25 14:32N 49°20' W 123°14'1 0.5
2014-Oct-25 13:34N 49°20' W 123°15'1010.5
2014-Oct-25 12:33N 49°16' W 123°30'1312.7
2014-Oct-25 11:32N 49°13' W 123°49'7 7.6
2014-Oct-25 10:34N 49°17' W 123°59'1313.2
2014-Oct-25 09:33N 49°24' W 124°16'1413.7
2014-Oct-25 08:33N 49°33' W 124°33'1414.3
2014-Oct-25 07:33N 49°43' W 124°47'1414.1
2014-Oct-25 06:33N 49°53' W 125°03'1110.9
2014-Oct-25 05:33N 50°02' W 125°13'1 0.1
2014-Oct-24 13:17N 50°03' W 125°15'1 1.6
2014-Oct-24 12:33N 50°02' W 125°13'5 5.4
2014-Oct-24 11:33N 49°58' W 125°08'9 9.1
2014-Oct-24 10:33N 49°51' W 124°58'1313.4
2014-Oct-24 09:33N 49°42' W 124°43'1413.7
2014-Oct-24 08:33N 49°32' W 124°29'1414.3
2014-Oct-24 07:33N 49°23' W 124°12'1313.4
2014-Oct-24 06:33N 49°15' W 123°55'6 5.7
2014-Oct-24 05:33N 49°13' W 123°47'1312.9
2014-Oct-24 04:33N 49°07' W 123°30'1212.4
2014-Oct-24 03:33N 48°60' W 123°14'1212.3
2014-Oct-24 02:33N 48°50' W 123°02'1010.4
2014-Oct-24 01:33N 48°42' W 123°12'1212.1
2014-Oct-24 00:33N 48°30' W 123°11'1111.2
2014-Oct-23 23:33N 48°22' W 123°22'10 9.6
2014-Oct-23 22:32N 48°14' W 123°30'1111.3
2014-Oct-23 21:32N 48°13' W 123°47'5 5.3
2014-Oct-23 20:31N 48°14' W 123°55'1212.5
2014-Oct-23 19:33N 48°19' W 124°12'1413.7
2014-Oct-23 18:33N 48°24' W 124°30'1212.5
2014-Oct-23 17:33N 48°29' W 124°48'1111.3
2014-Oct-23 16:33N 48°24' W 125°04'12911.8
2014-Oct-23 05:33N 46°19' W 124°16'8 7.9
2014-Oct-23 04:33N 46°12' W 124°10'7 7.0
2014-Oct-23 03:33N 46°15' W 124°00'1010.2
2014-Oct-23 02:33N 46°13' W 123°46'56 9.0
2014-Oct-22 20:20N 45°38' W 122°42'0 0.0
2014-Oct-22 19:08N 45°38' W 122°42'0 0.1
2014-Oct-22 18:26N 45°38' W 122°42'0 0.0
2014-Oct-22 17:32N 45°38' W 122°42'0 0.0
2014-Oct-21 16:32N 45°38' W 122°42'0 0.0
2014-Oct-21 09:14N 45°38' W 122°42'0 0.0
2014-Oct-21 05:08N 45°38' W 122°42'0 0.0
2014-Oct-21 03:20N 45°38' W 122°42'0 0.0
2014-Oct-21 02:08N 45°38' W 122°42'0 0.1
2014-Oct-21 01:32N 45°38' W 122°42'0 0.0
2014-Oct-20 23:26N 45°38' W 122°42'0 0.0
2014-Oct-20 03:26N 45°38' W 122°42'0 0.0
2014-Oct-20 02:32N 45°38' W 122°42'0 0.0
2014-Oct-20 01:32N 45°38' W 122°42'0 0.0
2014-Oct-20 00:32N 45°38' W 122°42'0 0.0
2014-Oct-19 23:32N 45°38' W 122°42'0 0.0
2014-Oct-19 22:32N 45°38' W 122°42'0 0.0
2014-Oct-19 21:32N 45°38' W 122°42'0 0.0
2014-Oct-19 20:32N 45°38' W 122°42'0 0.0
2014-Oct-19 19:32N 45°38' W 122°42'0 0.0
2014-Oct-19 18:32N 45°38' W 122°42'0 0.0
2014-Oct-19 17:32N 45°38' W 122°42'0 0.0
2014-Oct-19 16:32N 45°38' W 122°42'0 0.0
2014-Oct-19 15:32N 45°38' W 122°42'0 0.0
2014-Oct-19 14:32N 45°38' W 122°42'0 0.0
2014-Oct-19 13:32N 45°38' W 122°42'0 0.0
2014-Oct-19 12:32N 45°38' W 122°42'0 0.0
2014-Oct-19 11:32N 45°38' W 122°42'0 0.0
2014-Oct-19 10:26N 45°38' W 122°42'0 0.0
2014-Oct-19 09:32N 45°38' W 122°42'0 0.0
2014-Oct-19 08:32N 45°38' W 122°42'0 0.0
2014-Oct-18 12:17N 45°38' W 122°43'49 9.7
2014-Oct-18 07:15N 46°16' W 123°27'812.2
2014-Oct-18 06:33N 46°15' W 123°40'1110.7
2014-Oct-18 05:33N 46°11' W 123°54'1010.5
2014-Oct-18 04:34N 46°13' W 124°09'  

Dump ship's entire track history